Time;durP1;ratioP1;P1;durP2;ratioP2;P2;SDS_P1;SDS_P2;PMS_P1;PMS_P2;Temp;Humidity;BMP_temperature;BMP_pressure;BME280_temperature;BME280_humidity;BME280_pressure;Samples;Min_cycle;Max_cycle;Signal;HPM_P1;HPM_P2
2023/07/25 00:01:40;;;;;;;1.92;1.67;;;;;;;14.83;100.00;94980.00;5052944;28;20048;-76
2023/07/25 00:04:06;;;;;;;2.53;2.10;;;;;;;14.84;100.00;94977.28;5053314;28;20056;-75
2023/07/25 00:06:33;;;;;;;2.47;2.10;;;;;;;14.88;100.00;94975.22;5053290;28;20461;-76
2023/07/25 00:08:59;;;;;;;3.85;2.30;;;;;;;14.88;100.00;94976.03;5053308;28;20406;-77
2023/07/25 00:11:27;;;;;;;3.70;2.03;;;;;;;14.85;100.00;94967.66;5053027;28;20406;-76
2023/07/25 00:13:53;;;;;;;2.95;1.85;;;;;;;14.82;100.00;94971.38;5052881;28;20086;-77
2023/07/25 00:16:20;;;;;;;2.25;2.05;;;;;;;14.67;100.00;94965.78;5052659;28;20048;-76
2023/07/25 00:18:46;;;;;;;3.28;2.05;;;;;;;14.64;100.00;94958.25;5053182;28;20052;-76
2023/07/25 00:21:13;;;;;;;3.42;2.35;;;;;;;14.68;100.00;94953.56;5052863;28;20052;-74
2023/07/25 00:23:39;;;;;;;8.98;2.55;;;;;;;14.62;100.00;94951.56;5052851;28;20056;-74
2023/07/25 00:26:06;;;;;;;3.25;2.20;;;;;;;14.50;100.00;94943.09;5051887;28;20049;-75
2023/07/25 00:28:33;;;;;;;3.15;2.25;;;;;;;14.40;100.00;94932.63;5052976;28;20052;-74
2023/07/25 00:31:06;;;;;;;2.65;1.85;;;;;;;14.58;100.00;94937.16;5052893;28;20095;-75
2023/07/25 00:33:32;;;;;;;2.17;1.98;;;;;;;14.65;100.00;94938.25;5052708;28;20060;-75
2023/07/25 00:35:59;;;;;;;4.07;2.53;;;;;;;14.59;100.00;94930.97;5052365;28;20048;-75
2023/07/25 00:38:25;;;;;;;2.75;2.20;;;;;;;14.47;100.00;94925.91;5048009;28;20049;-75
2023/07/25 00:40:51;;;;;;;3.10;2.42;;;;;;;14.49;100.00;94926.59;5052347;28;20498;-75
2023/07/25 00:43:18;;;;;;;6.45;2.47;;;;;;;14.31;100.00;94922.22;5052273;28;20052;-76
2023/07/25 00:45:46;;;;;;;3.00;2.33;;;;;;;14.14;100.00;94914.16;5052081;28;20060;-75
2023/07/25 00:48:13;;;;;;;2.65;1.90;;;;;;;14.11;100.00;94918.84;5052461;28;20406;-76
2023/07/25 00:50:39;;;;;;;2.70;2.17;;;;;;;14.19;100.00;94917.16;5052301;28;20483;-75
2023/07/25 00:53:09;;;;;;;2.83;1.92;;;;;;;14.33;100.00;94922.91;5052208;28;20391;-74
2023/07/25 00:55:36;;;;;;;3.03;2.30;;;;;;;14.33;100.00;94922.91;5051383;28;20048;-75
2023/07/25 00:58:02;;;;;;;2.50;1.90;;;;;;;14.35;100.00;94920.97;5052569;28;20044;-74
2023/07/25 01:00:28;;;;;;;3.88;2.00;;;;;;;14.35;100.00;94923.56;5052190;28;20453;-75
2023/07/25 01:02:56;;;;;;;3.80;2.38;;;;;;;14.25;100.00;94914.00;5051749;28;20054;-76
2023/07/25 01:05:23;;;;;;;3.88;2.45;;;;;;;14.11;100.00;94911.84;5052022;28;20052;-75
2023/07/25 01:07:49;;;;;;;3.42;2.10;;;;;;;14.07;100.00;94914.88;5052021;28;20056;-75
2023/07/25 01:10:16;;;;;;;11.85;2.45;;;;;;;14.03;100.00;94915.13;5051724;28;20045;-75
2023/07/25 01:12:42;;;;;;;13.00;3.05;;;;;;;14.07;100.00;94905.25;5051621;28;20048;-74
2023/07/25 01:15:10;;;;;;;3.65;2.25;;;;;;;14.07;100.00;94905.25;5051883;28;20052;-75
2023/07/25 01:17:36;;;;;;;3.55;2.95;;;;;;;14.11;100.00;94904.03;5051755;28;20126;-74
2023/07/25 01:20:07;;;;;;;2.72;2.33;;;;;;;14.22;100.00;94893.44;5051887;28;20057;-74
2023/07/25 01:22:37;;;;;;;4.47;2.33;;;;;;;14.14;100.00;94888.13;5051615;28;20068;-74
2023/07/25 01:25:07;;;;;;;3.47;2.17;;;;;;;14.03;100.00;94893.50;5051463;28;20458;-75
2023/07/25 01:27:34;;;;;;;3.50;2.10;;;;;;;13.97;100.00;94891.44;5051708;28;20053;-75
2023/07/25 01:30:00;;;;;;;2.70;1.98;;;;;;;13.90;100.00;94888.53;5051735;28;20048;-74
2023/07/25 01:32:27;;;;;;;3.50;2.15;;;;;;;13.91;100.00;94879.81;5051504;28;20102;-74
2023/07/25 01:34:53;;;;;;;2.67;2.20;;;;;;;14.02;100.00;94871.03;5051490;28;20045;-73
2023/07/25 01:37:21;;;;;;;3.97;2.45;;;;;;;14.10;100.00;94868.53;5050915;28;20049;-76
2023/07/25 01:39:47;;;;;;;2.65;1.83;;;;;;;14.12;100.00;94869.19;5050994;28;20495;-75
2023/07/25 01:42:15;;;;;;;2.63;1.80;;;;;;;14.04;100.00;94856.88;5051177;28;20057;-75
2023/07/25 01:44:41;;;;;;;3.42;2.22;;;;;;;14.04;100.00;94861.28;5051368;28;20048;-75
2023/07/25 01:47:08;;;;;;;2.30;1.60;;;;;;;14.04;100.00;94858.66;5051394;28;20075;-76
2023/07/25 01:49:34;;;;;;;2.38;1.60;;;;;;;13.99;100.00;94860.88;5051426;28;20065;-75
2023/07/25 01:52:01;;;;;;;2.55;2.08;;;;;;;14.02;100.00;94855.41;5051243;28;20094;-75
2023/07/25 01:54:27;;;;;;;3.70;2.10;;;;;;;13.98;100.00;94854.03;5051052;28;20052;-74
2023/07/25 01:56:54;;;;;;;2.10;1.90;;;;;;;14.03;100.00;94852.66;5050919;28;20056;-75
2023/07/25 01:59:21;;;;;;;2.55;2.10;;;;;;;13.92;100.00;94839.78;5051263;28;20044;-75
2023/07/25 02:01:48;;;;;;;4.68;2.63;;;;;;;13.72;100.00;94836.41;5051070;28;20052;-75
2023/07/25 02:04:14;;;;;;;3.72;2.58;;;;;;;13.58;100.00;94841.19;5051286;28;20419;-76
2023/07/25 02:06:41;;;;;;;3.33;2.55;;;;;;;13.63;100.00;94832.00;5050984;28;20049;-76
2023/07/25 02:09:07;;;;;;;4.03;2.42;;;;;;;13.70;100.00;94829.69;5051136;28;20053;-75
2023/07/25 02:11:34;;;;;;;2.88;2.10;;;;;;;13.83;100.00;94829.38;5051020;28;20061;-75
2023/07/25 02:14:00;;;;;;;5.85;2.80;;;;;;;13.89;100.00;94827.03;5051171;28;20049;-75
2023/07/25 02:16:28;;;;;;;2.67;2.40;;;;;;;13.83;100.00;94832.81;5050974;28;20061;-75
2023/07/25 02:18:54;;;;;;;4.80;2.80;;;;;;;13.54;100.00;94814.63;5051204;28;20053;-75
2023/07/25 02:21:21;;;;;;;3.95;2.80;;;;;;;13.43;100.00;94826.00;5050826;28;20052;-76
2023/07/25 02:23:47;;;;;;;4.07;2.72;;;;;;;13.40;100.00;94826.25;5050855;28;20089;-75
2023/07/25 02:26:13;;;;;;;4.57;2.50;;;;;;;13.30;100.00;94825.44;5050904;28;20461;-75
2023/07/25 02:28:40;;;;;;;5.22;2.53;;;;;;;13.23;100.00;94826.88;5051088;28;20049;-75
2023/07/25 02:31:06;;;;;;;5.97;2.97;;;;;;;13.20;100.00;94821.97;5050922;28;20427;-75
2023/07/25 02:33:34;;;;;;;3.72;2.92;;;;;;;12.98;100.00;94823.03;5050508;28;20045;-75
2023/07/25 02:36:00;;;;;;;3.28;2.97;;;;;;;13.02;100.00;94829.63;5050784;28;20098;-75
2023/07/25 02:38:28;;;;;;;6.38;2.90;;;;;;;12.92;100.00;94826.16;5050909;28;20079;-75
2023/07/25 02:40:54;;;;;;;4.72;2.58;;;;;;;12.92;100.00;94819.19;5050563;28;20052;-75
2023/07/25 02:43:22;;;;;;;4.97;3.08;;;;;;;13.02;100.00;94814.84;5050415;28;20040;-75
2023/07/25 02:45:48;;;;;;;5.63;2.67;;;;;;;13.21;100.00;94816.63;5050511;28;20140;-75
2023/07/25 02:48:15;;;;;;;2.13;1.92;;;;;;;13.34;100.00;94815.56;5050892;28;20127;-74
2023/07/25 02:50:43;;;;;;;3.28;2.63;;;;;;;13.34;100.00;94816.38;5053887;28;20056;-75
2023/07/25 02:53:09;;;;;;;2.88;2.53;;;;;;;13.31;100.00;94811.47;5054387;28;20509;-75
2023/07/25 02:55:37;;;;;;;3.25;2.85;;;;;;;13.55;100.00;94790.25;5054138;28;20107;-76
2023/07/25 02:58:03;;;;;;;5.05;2.65;;;;;;;13.55;100.00;94787.66;5054761;28;20057;-75
2023/07/25 03:00:29;;;;;;;4.95;2.63;;;;;;;13.41;100.00;94788.88;5054426;28;20056;-75
2023/07/25 03:02:56;;;;;;;4.30;2.35;;;;;;;13.27;100.00;94802.28;5054381;28;20049;-77
2023/07/25 03:05:22;;;;;;;4.38;2.92;;;;;;;13.05;100.00;94813.72;5054290;28;20053;-77
2023/07/25 03:07:50;;;;;;;2.90;2.60;;;;;;;12.79;100.00;94801.25;5053739;28;20048;-75
2023/07/25 03:10:17;;;;;;;3.35;2.40;;;;;;;12.70;100.00;94799.44;5054420;28;20056;-77
2023/07/25 03:12:43;;;;;;;2.67;2.45;;;;;;;12.73;100.00;94793.16;5054184;28;20048;-76
2023/07/25 03:15:10;;;;;;;3.00;2.28;;;;;;;12.91;100.00;94781.19;5054386;28;20103;-76
2023/07/25 03:17:37;;;;;;;2.78;2.08;;;;;;;13.01;100.00;94774.19;5054036;28;20049;-76
2023/07/25 03:20:04;;;;;;;2.30;1.98;;;;;;;13.07;100.00;94768.47;5054457;28;20052;-76
2023/07/25 03:22:30;;;;;;;2.17;1.98;;;;;;;13.11;100.00;94768.19;5054109;28;20052;-75
2023/07/25 03:24:58;;;;;;;3.05;2.35;;;;;;;13.07;100.00;94770.25;5054206;28;20074;-77
2023/07/25 03:27:25;;;;;;;3.80;2.53;;;;;;;13.04;100.00;94780.91;5053999;28;20076;-75
2023/07/25 03:29:52;;;;;;;3.03;2.00;;;;;;;13.13;100.00;94800.91;5054177;28;20106;-75
2023/07/25 03:32:18;;;;;;;4.47;2.40;;;;;;;13.21;100.00;94798.44;5053677;28;20048;-76
2023/07/25 03:34:45;;;;;;;3.63;2.10;;;;;;;13.22;100.00;94789.69;5046038;28;20053;-76
2023/07/25 03:37:11;;;;;;;3.20;2.25;;;;;;;13.29;100.00;94792.59;5053000;28;20126;-76
2023/07/25 03:39:37;;;;;;;3.67;1.83;;;;;;;13.37;100.00;94795.31;5053044;28;20536;-76
2023/07/25 03:42:06;;;;;;;3.10;2.85;;;;;;;13.43;100.00;94780.97;5067169;22;20064;-71
2023/07/25 03:44:33;;;;;;;5.65;2.33;;;;;;;13.52;100.00;94782.72;5052139;28;20049;-72
2023/07/25 03:46:59;;;;;;;2.33;1.95;;;;;;;13.56;100.00;94774.50;5049560;28;20045;-72
2023/07/25 03:49:26;;;;;;;3.67;2.25;;;;;;;13.58;100.00;94774.38;5044785;28;20045;-72
2023/07/25 03:51:52;;;;;;;2.92;2.20;;;;;;;13.52;100.00;94780.13;5042029;28;20049;-72
2023/07/25 03:54:21;;;;;;;4.05;2.38;;;;;;;13.41;100.00;94788.06;5052656;28;20049;-71
2023/07/25 03:56:48;;;;;;;3.28;2.03;;;;;;;13.34;100.00;94794.78;5052793;28;20084;-71
2023/07/25 03:59:15;;;;;;;2.65;2.42;;;;;;;13.29;100.00;94793.41;5052900;28;20049;-71
2023/07/25 04:01:42;;;;;;;3.20;2.40;;;;;;;13.36;100.00;94787.66;5050301;28;20048;-72
2023/07/25 04:04:08;;;;;;;10.35;2.60;;;;;;;13.48;100.00;94789.16;5051867;28;20518;-71
2023/07/25 04:06:35;;;;;;;7.90;2.58;;;;;;;13.50;100.00;94782.06;5052433;28;20049;-71
2023/07/25 04:09:01;;;;;;;6.78;2.72;;;;;;;13.60;100.00;94784.63;5052627;28;20453;-71
2023/07/25 04:11:27;;;;;;;2.55;2.28;;;;;;;13.66;100.00;94784.91;5052250;28;20047;-71
2023/07/25 04:13:54;;;;;;;3.67;2.50;;;;;;;13.77;100.00;94795.16;5052282;28;20051;-71
2023/07/25 04:16:22;;;;;;;4.05;2.47;;;;;;;13.83;100.00;94788.59;5050362;28;20060;-71
2023/07/25 04:18:49;;;;;;;3.83;2.28;;;;;;;13.90;100.00;94789.63;5052216;28;20102;-72
2023/07/25 04:21:15;;;;;;;2.53;2.22;;;;;;;13.94;100.00;94791.03;5051944;28;20049;-71
2023/07/25 04:23:42;;;;;;;2.58;2.25;;;;;;;13.87;100.00;94795.16;5052138;28;20041;-71
2023/07/25 04:26:09;;;;;;;6.15;3.15;;;;;;;13.96;100.00;94796.09;5051482;28;20064;-71
2023/07/25 04:28:35;;;;;;;3.42;2.38;;;;;;;14.01;100.00;94794.69;5051309;28;20095;-71
2023/07/25 04:31:02;;;;;;;3.05;2.25;;;;;;;14.09;100.00;94794.00;5052221;28;20048;-72
2023/07/25 04:33:29;;;;;;;2.05;1.83;;;;;;;14.11;100.00;94794.66;5053507;28;20080;-72
2023/07/25 04:35:56;;;;;;;2.28;2.05;;;;;;;14.15;100.00;94801.22;5052360;28;20391;-72
2023/07/25 04:38:22;;;;;;;2.15;1.95;;;;;;;14.13;100.00;94804.97;5053140;28;20079;-72
2023/07/25 04:40:49;;;;;;;2.15;1.95;;;;;;;14.18;100.00;94803.56;5052235;28;20049;-72
2023/07/25 04:43:15;;;;;;;4.93;2.38;;;;;;;14.23;100.00;94805.72;5052624;28;20396;-72
2023/07/25 04:45:41;;;;;;;2.30;2.10;;;;;;;14.26;100.00;94811.47;5051721;28;20445;-72
2023/07/25 04:48:08;;;;;;;3.28;2.53;;;;;;;14.27;100.00;94810.50;5052580;28;20060;-72
2023/07/25 04:50:36;;;;;;;3.05;2.35;;;;;;;14.18;100.00;94811.38;5052414;28;20049;-72
2023/07/25 04:53:02;;;;;;;2.90;2.47;;;;;;;14.25;100.00;94819.44;5052472;28;20408;-72
2023/07/25 04:55:29;;;;;;;2.20;2.00;;;;;;;14.29;100.00;94820.78;5050356;28;20060;-73
2023/07/25 04:57:55;;;;;;;3.15;2.35;;;;;;;14.16;100.00;94823.69;5044644;28;20418;-72
2023/07/25 05:00:22;;;;;;;4.40;2.72;;;;;;;13.98;100.00;94822.81;5051954;28;20059;-72
2023/07/25 05:02:48;;;;;;;3.28;1.98;;;;;;;13.82;100.00;94823.34;5051742;28;20087;-73
2023/07/25 05:05:15;;;;;;;3.40;2.20;;;;;;;13.77;100.00;94820.34;5052140;28;20057;-71
2023/07/25 05:07:43;;;;;;;7.75;2.40;;;;;;;13.91;100.00;94827.75;5050169;28;20056;-71
2023/07/25 05:10:10;;;;;;;2.75;2.00;;;;;;;13.96;100.00;94828.13;5051272;28;20052;-71
2023/07/25 05:12:36;;;;;;;2.90;2.20;;;;;;;14.00;100.00;94828.69;5050905;28;20053;-71
2023/07/25 05:15:03;;;;;;;2.30;2.10;;;;;;;13.92;100.00;94826.78;5051275;28;20117;-71
2023/07/25 05:17:29;;;;;;;4.72;2.65;;;;;;;13.94;100.00;94831.81;5051253;28;20063;-71
2023/07/25 05:19:56;;;;;;;2.85;2.40;;;;;;;13.98;100.00;94828.00;5051308;28;20059;-71
2023/07/25 05:22:22;;;;;;;2.60;2.40;;;;;;;14.03;100.00;94820.59;5051411;28;20059;-72
2023/07/25 05:24:50;;;;;;;2.42;2.20;;;;;;;13.97;100.00;94815.94;5051411;28;20056;-73
2023/07/25 05:27:17;;;;;;;3.47;2.30;;;;;;;14.01;100.00;94827.72;5051421;28;20053;-73
2023/07/25 05:29:43;;;;;;;5.72;2.42;;;;;;;13.93;100.00;94819.78;5044005;28;20055;-72
2023/07/25 05:32:10;;;;;;;2.10;1.90;;;;;;;13.97;100.00;94818.53;5050459;28;20048;-73
2023/07/25 05:34:37;;;;;;;2.53;1.90;;;;;;;14.02;100.00;94804.16;5051104;28;20048;-72
2023/07/25 05:37:03;;;;;;;2.80;2.35;;;;;;;14.11;100.00;94802.47;5044864;28;20164;-71
2023/07/25 05:39:30;;;;;;;5.53;2.40;;;;;;;14.04;100.00;94814.41;5051534;28;20099;-73
2023/07/25 05:41:57;;;;;;;3.65;2.83;;;;;;;14.08;100.00;94826.19;5051096;28;20052;-73
2023/07/25 05:44:24;;;;;;;15.20;3.45;;;;;;;14.11;100.00;94815.50;5050246;28;20055;-74
2023/07/25 05:46:50;;;;;;;2.65;2.45;;;;;;;14.18;100.00;94818.38;5049317;28;20048;-75
2023/07/25 05:49:17;;;;;;;3.67;2.92;;;;;;;14.33;100.00;94811.72;5053069;28;20071;-74
2023/07/25 05:51:43;;;;;;;3.42;2.22;;;;;;;14.44;100.00;94813.34;5050290;28;20584;-73
2023/07/25 05:54:09;;;;;;;3.60;2.42;;;;;;;14.42;100.00;94816.06;5046889;28;20482;-71
2023/07/25 05:56:36;;;;;;;3.70;2.03;;;;;;;14.44;100.00;94823.75;5051383;28;20048;-73
2023/07/25 05:59:04;;;;;;;7.07;2.50;;;;;;;14.42;100.00;94825.66;5051241;28;20111;-71
2023/07/25 06:01:30;;;;;;;2.10;1.95;;;;;;;14.40;100.00;94823.22;5054019;28;20052;-72
2023/07/25 06:03:57;;;;;;;2.33;2.13;;;;;;;14.43;100.00;94817.72;5050916;28;20044;-68
2023/07/25 06:06:23;;;;;;;5.03;2.60;;;;;;;14.37;100.00;94817.47;5050954;28;20060;-72
2023/07/25 06:08:49;;;;;;;2.92;2.20;;;;;;;14.17;100.00;94812.34;5047167;28;20418;-72
2023/07/25 06:11:21;;;;;;;4.90;2.42;;;;;;;14.23;100.00;94811.75;5051145;28;20049;-72
2023/07/25 06:13:49;;;;;;;3.05;2.38;;;;;;;14.29;100.00;94829.44;5051744;28;20152;-73
2023/07/25 06:16:16;;;;;;;4.35;1.88;;;;;;;14.35;100.00;94833.25;5050631;28;20407;-73
2023/07/25 06:18:43;;;;;;;2.90;2.33;;;;;;;14.36;100.00;94834.06;5051043;28;20490;-73
2023/07/25 06:21:09;;;;;;;3.00;2.35;;;;;;;14.26;100.00;94845.31;5050108;28;20071;-72
2023/07/25 06:23:36;;;;;;;9.75;2.65;;;;;;;14.16;100.00;94836.72;5051303;28;20045;-71
2023/07/25 06:26:02;;;;;;;3.03;2.50;;;;;;;14.02;100.00;94830.19;5056782;28;20055;-71
2023/07/25 06:28:29;;;;;;;4.72;2.88;;;;;;;14.01;100.00;94844.16;5053836;28;20056;-71
2023/07/25 06:30:55;;;;;;;2.72;2.10;;;;;;;14.16;100.00;94841.91;5057286;28;20048;-70
2023/07/25 06:33:23;;;;;;;9.45;2.80;;;;;;;14.22;100.00;94833.56;5056893;28;20049;-70
2023/07/25 06:35:49;;;;;;;3.60;2.30;;;;;;;14.27;100.00;94827.91;5056681;28;20052;-71
2023/07/25 06:38:16;;;;;;;3.17;2.30;;;;;;;14.40;100.00;94818.00;5056762;28;20115;-70
2023/07/25 06:40:43;;;;;;;4.68;2.38;;;;;;;14.59;100.00;94817.16;5056605;28;20130;-70
2023/07/25 06:43:10;;;;;;;10.85;2.80;;;;;;;14.83;100.00;94813.19;5056811;28;20049;-70
2023/07/25 06:45:36;;;;;;;6.45;2.97;;;;;;;14.84;100.00;94813.06;5056841;28;20052;-69
2023/07/25 06:48:03;;;;;;;4.90;2.30;;;;;;;14.79;100.00;94809.22;5059686;28;20057;-71
2023/07/25 06:50:32;;;;;;;4.10;2.53;;;;;;;14.82;100.00;94811.53;5057157;28;20053;-71
2023/07/25 06:52:59;;;;;;;3.78;2.63;;;;;;;14.90;100.00;94798.59;5057133;28;20057;-72
2023/07/25 06:55:26;;;;;;;3.35;2.58;;;;;;;15.04;100.00;94787.66;5056970;28;20103;-72
2023/07/25 06:57:53;;;;;;;2.47;2.25;;;;;;;15.25;100.00;94792.63;5056962;28;20114;-72
2023/07/25 07:00:19;;;;;;;6.05;2.78;;;;;;;15.34;100.00;94791.72;5056970;28;20045;-72
2023/07/25 07:02:46;;;;;;;2.97;2.17;;;;;;;15.51;100.00;94771.81;5053992;28;20044;-72
2023/07/25 07:05:12;;;;;;;3.58;2.05;;;;;;;15.83;100.00;94768.63;5051425;28;20498;-72
2023/07/25 07:07:41;;;;;;;3.90;2.20;;;;;;;16.12;100.00;94777.97;5056199;28;20110;-71
2023/07/25 07:10:08;;;;;;;4.65;2.10;;;;;;;16.29;100.00;94787.56;5057137;28;20426;-71
2023/07/25 07:12:34;;;;;;;2.03;1.83;;;;;;;16.53;100.00;94791.25;5056103;28;20495;-71
2023/07/25 07:15:00;;;;;;;4.18;2.20;;;;;;;16.52;100.00;94787.81;5056905;28;20068;-72
2023/07/25 07:17:27;;;;;;;2.33;2.05;;;;;;;16.69;100.00;94780.88;5056722;28;20041;-73
2023/07/25 07:19:54;;;;;;;4.10;2.58;;;;;;;16.89;100.00;94771.00;5056673;28;20178;-72
2023/07/25 07:22:20;;;;;;;4.05;2.58;;;;;;;17.03;100.00;94770.38;5056163;28;20120;-72
2023/07/25 07:24:48;;;;;;;1.98;1.35;;;;;;;16.99;100.00;94769.06;5056484;28;20048;-72
2023/07/25 07:27:14;;;;;;;5.57;1.80;;;;;;;17.23;100.00;94770.09;5056886;28;20107;-72
2023/07/25 07:29:41;;;;;;;3.63;1.90;;;;;;;17.48;100.00;94770.94;5056477;28;20395;-72
2023/07/25 07:32:08;;;;;;;3.92;1.77;;;;;;;17.79;100.00;94763.25;5056469;28;20052;-72
2023/07/25 07:34:34;;;;;;;4.15;2.08;;;;;;;18.17;100.00;94761.75;5056505;28;20044;-72
2023/07/25 07:37:01;;;;;;;1.52;1.35;;;;;;;18.12;100.00;94767.47;5051044;28;20049;-72
2023/07/25 07:39:27;;;;;;;3.70;1.38;;;;;;;18.30;100.00;94759.41;5053638;28;20053;-73
2023/07/25 07:41:55;;;;;;;2.17;1.80;;;;;;;18.53;100.00;94762.13;5053094;28;20080;-73
2023/07/25 07:44:21;;;;;;;1.95;1.27;;;;;;;18.18;100.00;94765.19;5053374;28;20524;-72
2023/07/25 07:46:48;;;;;;;7.45;1.92;;;;;;;18.03;100.00;94770.28;5052963;28;20533;-73
2023/07/25 07:49:14;;;;;;;1.98;1.42;;;;;;;17.89;100.00;94769.16;5052821;28;20048;-73
2023/07/25 07:51:41;;;;;;;2.60;1.52;;;;;;;17.65;100.00;94770.78;5053417;28;20052;-72
2023/07/25 07:54:07;;;;;;;4.25;1.55;;;;;;;17.53;100.00;94768.63;5053221;28;20041;-72
2023/07/25 07:56:33;;;;;;;2.55;1.67;;;;;;;17.63;100.00;94770.13;5053012;28;20061;-73
2023/07/25 07:59:01;;;;;;;4.03;1.65;;;;;;;17.52;100.00;94762.59;5053318;28;20051;-73
2023/07/25 08:01:28;;;;;;;2.42;1.35;;;;;;;17.52;100.00;94775.69;5052845;28;20052;-71
2023/07/25 08:03:55;;;;;;;3.58;1.77;;;;;;;17.56;100.00;94763.09;5052615;28;20068;-71
2023/07/25 08:06:21;;;;;;;2.78;1.73;;;;;;;17.49;100.00;94773.38;5052842;28;20057;-71
2023/07/25 08:08:48;;;;;;;3.40;1.58;;;;;;;17.50;100.00;94771.56;5052949;28;20041;-72
2023/07/25 08:11:14;;;;;;;12.20;1.80;;;;;;;17.43;100.00;94768.81;5052694;28;20080;-71
2023/07/25 08:13:41;;;;;;;1.40;1.20;;;;;;;17.57;100.00;94767.31;5052477;28;20079;-72
2023/07/25 08:16:08;;;;;;;1.77;1.40;;;;;;;17.45;100.00;94773.88;5052580;28;20059;-71
2023/07/25 08:18:35;;;;;;;1.92;1.38;;;;;;;17.35;100.00;94776.63;5052213;28;20080;-72
2023/07/25 08:21:02;;;;;;;2.60;1.60;;;;;;;17.33;100.00;94768.16;5052411;28;20044;-72
2023/07/25 08:23:29;;;;;;;3.85;1.58;;;;;;;17.16;100.00;94773.34;5052438;28;20421;-71
2023/07/25 08:25:55;;;;;;;3.47;1.30;;;;;;;17.26;100.00;94778.44;5052427;28;20041;-71
2023/07/25 08:28:22;;;;;;;3.20;1.23;;;;;;;17.23;100.00;94770.91;5052596;28;20132;-72
2023/07/25 08:30:49;;;;;;;2.13;1.38;;;;;;;17.05;100.00;94778.06;5052048;28;20053;-71
2023/07/25 08:33:19;;;;;;;2.58;1.35;;;;;;;17.11;100.00;94769.56;5052786;28;20049;-72
2023/07/25 08:35:47;;;;;;;1.73;1.17;;;;;;;17.06;100.00;94775.31;5052690;28;20044;-72
2023/07/25 08:38:13;;;;;;;1.83;1.42;;;;;;;17.04;100.00;94776.44;5051665;28;20515;-72
2023/07/25 08:40:40;;;;;;;1.83;1.30;;;;;;;17.10;100.00;94766.16;5050609;28;20045;-72
2023/07/25 08:43:11;;;;;;;1.20;1.10;;;;;;;17.04;100.00;94774.63;5049936;28;20056;-72
2023/07/25 08:45:37;;;;;;;2.22;1.38;;;;;;;17.05;100.00;94775.44;5052007;28;20045;-72
2023/07/25 08:48:05;;;;;;;3.17;1.45;;;;;;;17.15;100.00;94763.84;5054474;28;20426;-72
2023/07/25 08:50:34;;;;;;;2.90;1.17;;;;;;;17.17;100.00;94769.75;5052504;28;20071;-72
2023/07/25 08:53:09;;;;;;;1.77;1.27;;;;;;;17.22;100.00;94768.47;5052722;28;20041;-73
2023/07/25 08:55:36;;;;;;;2.03;1.13;;;;;;;17.30;100.00;94766.66;5051939;28;20060;-73
2023/07/25 08:58:03;;;;;;;1.70;1.10;;;;;;;17.37;100.00;94758.97;5051985;28;20048;-72
2023/07/25 09:00:31;;;;;;;3.88;1.05;;;;;;;17.49;100.00;94762.91;5047907;28;20053;-73
2023/07/25 09:02:59;;;;;;;1.88;1.17;;;;;;;17.63;100.00;94757.03;5052018;28;20076;-73
2023/07/25 09:05:27;;;;;;;7.82;1.20;;;;;;;17.79;100.00;94765.88;5051499;28;20045;-72
2023/07/25 09:07:58;;;;;;;2.67;1.58;;;;;;;17.95;100.00;94767.66;5050302;28;20049;-73
2023/07/25 09:10:26;;;;;;;2.38;1.17;;;;;;;18.04;100.00;94769.28;5051462;28;20139;-72
2023/07/25 09:12:52;;;;;;;8.63;1.42;;;;;;;18.32;100.00;94764.50;5051474;28;20514;-73
2023/07/25 09:15:19;;;;;;;3.53;1.48;;;;;;;18.77;100.00;94758.63;5051535;28;20507;-73
2023/07/25 09:17:45;;;;;;;2.47;1.52;;;;;;;18.92;100.00;94761.34;5051242;28;20555;-72
2023/07/25 09:20:13;;;;;;;3.08;1.45;;;;;;;19.09;100.00;94757.59;5051631;28;20053;-73
2023/07/25 09:22:39;;;;;;;1.48;0.95;;;;;;;19.24;100.00;94757.69;5051109;28;20091;-73
2023/07/25 09:25:09;;;;;;;2.17;1.50;;;;;;;19.41;100.00;94755.78;5044879;28;20045;-72
2023/07/25 09:27:36;;;;;;;3.55;1.67;;;;;;;19.32;100.00;94762.09;5051310;28;20048;-72
2023/07/25 09:30:11;;;;;;;4.53;1.65;;;;;;;19.19;100.00;94774.97;5051675;28;20049;-74
2023/07/25 09:32:38;;;;;;;3.10;2.08;;;;;;;18.97;100.00;94777.38;5051141;28;20072;-74
2023/07/25 09:35:06;;;;;;;2.42;1.27;;;;;;;18.92;100.00;94777.06;5051501;28;20049;-73
2023/07/25 09:37:33;;;;;;;2.40;1.30;;;;;;;18.91;100.00;94767.59;5050986;28;20573;-74
2023/07/25 09:39:59;;;;;;;3.30;1.77;;;;;;;18.99;100.00;94764.91;5051396;28;20453;-73
2023/07/25 09:42:27;;;;;;;2.13;1.30;;;;;;;19.03;100.00;94758.31;5050758;28;20045;-73
2023/07/25 09:44:54;;;;;;;2.47;1.40;;;;;;;19.13;100.00;94765.13;5045939;28;20487;-73
2023/07/25 09:47:23;;;;;;;2.10;1.20;;;;;;;19.02;100.00;94759.31;5051026;28;20102;-72
2023/07/25 09:49:51;;;;;;;6.35;1.50;;;;;;;19.08;100.00;94774.34;5050299;28;20124;-72
2023/07/25 09:52:17;;;;;;;;;;;;;;;19.27;100.00;94767.84;5050790;28;20053;-72
2023/07/25 09:54:44;;;;;;;;;;;;;;;19.39;100.00;94764.81;5051165;28;20390;-71
2023/07/25 09:57:10;;;;;;;;;;;;;;;19.14;100.00;94765.00;5050107;28;20382;-72
2023/07/25 09:59:38;;;;;;;;;;;;;;;19.18;100.00;94762.84;5048396;28;19920;-72
2023/07/25 10:02:05;;;;;;;;;;;;;;;18.95;100.00;94771.50;5065102;22;20337;-73
2023/07/25 10:04:33;;;;;;;;;;;;;;;18.70;100.00;94773.38;5039880;28;19925;-73
2023/07/25 10:07:00;;;;;;;;;;;;;;;18.49;100.00;94770.50;5038067;28;19929;-73
2023/07/25 10:09:26;;;;;;;;;;;;;;;18.52;100.00;94770.97;5049882;28;19921;-73
2023/07/25 10:11:53;;;;;;;;;;;;;;;18.39;100.00;94773.28;5043165;28;20012;-72
2023/07/25 10:14:20;;;;;;;;;;;;;;;18.29;100.00;94776.13;5045729;28;19920;-72
2023/07/25 10:16:47;;;;;;;;;;;;;;;18.34;100.00;94778.25;5046437;28;19921;-73
2023/07/25 10:19:14;;;;;;;;;;;;;;;18.36;100.00;94790.19;5049746;28;19932;-73
2023/07/25 10:21:47;;;;;;;;;;;;;;;18.27;100.00;94777.28;5046975;28;19921;-73
2023/07/25 10:24:14;;;;;;;;;;;;;;;18.27;100.00;94782.50;5049756;28;19925;-73
2023/07/25 10:26:52;;;;;;;;;;;;;;;18.22;100.00;94782.22;5049835;28;19921;-73
2023/07/25 10:29:34;;;;;;;;;;;;;;;18.26;100.00;94786.94;5049149;28;19925;-74
2023/07/25 10:32:02;;;;;;;;;;;;;;;18.40;100.00;94777.56;5050556;28;20324;-74
2023/07/25 10:34:43;;;;;;;;;;;;;;;18.63;100.00;94772.41;5045900;28;19936;-74
2023/07/25 10:37:22;;;;;;;;;;;;;;;18.93;100.00;94770.84;5045960;28;19929;-74
2023/07/25 10:40:03;;;;;;;5.07;1.10;;;;;;;19.41;100.00;94768.09;5048461;28;19929;-73
2023/07/25 10:42:35;;;;;;;;;;;;;;;19.65;100.00;94761.84;5049261;28;20077;-73
2023/07/25 10:45:01;;;;;;;;;;;;;;;19.52;100.00;94765.88;5051150;28;19974;-73
2023/07/25 10:47:49;;;;;;;;;;;;;;;19.55;100.00;94759.47;5049193;28;20222;-74
2023/07/25 10:50:19;;;;;;;;;;;;;;;19.32;100.00;94762.09;5041395;28;19921;-73
2023/07/25 10:52:46;;;;;;;;;;;;;;;19.37;100.00;94759.75;5049954;28;20007;-73
2023/07/25 10:55:13;;;;;;;;;;;;;;;19.30;100.00;94769.31;5044357;28;19944;-73
2023/07/25 10:57:39;;;;;;;;;;;;;;;19.21;100.00;94765.13;5040507;28;19932;-74
2023/07/25 11:00:08;;;;;;;;;;;;;;;19.24;100.00;94756.88;5058661;28;19983;-73
2023/07/25 11:02:35;;;;;;;;;;;;;;;19.29;100.00;94760.63;5060643;28;19932;-73
2023/07/25 11:05:22;;;;;;;;;;;;;;;19.31;100.00;94766.50;5050352;28;19928;-73
2023/07/25 11:07:53;;;;;;;;;;;;;;;19.29;100.00;94768.50;5047973;28;20401;-73
2023/07/25 11:10:20;;;;;;;;;;;;;;;19.54;100.00;94770.94;5051323;28;19925;-73
2023/07/25 11:12:47;;;;;;;;;;;;;;;19.47;100.00;94768.22;5051778;28;19927;-73
2023/07/25 11:15:14;;;;;;;;;;;;;;;19.51;100.00;94763.44;5052330;28;19924;-73
2023/07/25 11:17:40;;;;;;;;;;;;;;;19.49;100.00;94762.78;5049069;28;19927;-73
2023/07/25 11:20:13;;;;;;;;;;;;;;;19.53;100.00;94754.38;5054311;28;19924;-73
2023/07/25 11:22:41;;;;;;;;;;;;;;;19.94;100.00;94758.50;5051488;28;20355;-74
2023/07/25 11:25:08;;;;;;;;;;;;;;;20.24;100.00;94765.41;5053843;28;19920;-74
2023/07/25 11:27:34;;;;;;;;;;;;;;;20.06;100.00;94764.97;5047719;28;19927;-74
2023/07/25 11:30:09;;;;;;;;;;;;;;;20.27;100.00;94770.31;5053496;28;19921;-74
2023/07/25 11:32:35;;;;;;;;;;;;;;;20.25;100.00;94761.00;5042456;28;19975;-75
2023/07/25 11:35:01;;;;;;;;;;;;;;;20.68;100.00;94762.00;5052712;28;20378;-76